Time;durP1;ratioP1;P1;durP2;ratioP2;P2;SDS_P1;SDS_P2;PMS_P1;PMS_P2;Temp;Humidity;BMP_temperature;BMP_pressure;BME280_temperature;BME280_humidity;BME280_pressure;Samples;Min_cycle;Max_cycle;Signal;HPM_P1;HPM_P2
2023/11/07 00:01:51;;;;;;;4.40;4.22;;;;;;;6.64;100.00;100163.97;6087504;23;20085;-72
2023/11/07 00:04:18;;;;;;;3.53;3.42;;;;;;;6.10;100.00;100090.75;6025952;23;22253;-72
2023/11/07 00:06:45;;;;;;;11.77;4.35;;;;;;;5.91;100.00;100075.03;6084594;23;20030;-73
2023/11/07 00:09:12;;;;;;;3.80;3.65;;;;;;;6.10;100.00;100108.13;6056238;23;20089;-71
2023/11/07 00:11:39;;;;;;;3.50;3.40;;;;;;;5.84;100.00;100068.41;6080964;23;20013;-72
2023/11/07 00:14:06;;;;;;;5.10;4.72;;;;;;;6.16;100.00;100134.75;6057887;23;20081;-72
2023/11/07 00:16:33;;;;;;;4.97;4.43;;;;;;;6.40;100.00;100194.56;6085349;23;20143;-72
2023/11/07 00:18:59;;;;;;;3.92;3.75;;;;;;;6.05;100.00;100138.72;6057239;23;20089;-72
2023/11/07 00:21:28;;;;;;;3.85;3.65;;;;;;;6.29;100.00;100171.56;6084444;23;20105;-71
2023/11/07 00:23:55;;;;;;;5.72;5.32;;;;;;;6.15;100.00;100160.88;6050104;23;20448;-72
2023/11/07 00:26:21;;;;;;;3.85;3.65;;;;;;;6.43;100.00;100206.59;6083778;23;20687;-71
2023/11/07 00:28:48;;;;;;;5.20;3.78;;;;;;;6.33;100.00;100178.31;6050615;23;20014;-73
2023/11/07 00:31:14;;;;;;;3.13;3.03;;;;;;;6.38;100.00;100209.41;6068472;23;20045;-71
2023/11/07 00:33:41;;;;;;;4.07;3.88;;;;;;;6.43;100.00;100212.66;6031635;23;20092;-72
2023/11/07 00:36:11;;;;;;;4.70;4.50;;;;;;;6.51;100.00;100210.56;6079863;23;20087;-71
2023/11/07 00:38:37;;;;;;;4.50;4.05;;;;;;;6.10;100.00;100153.25;6054875;23;20018;-72
2023/11/07 00:41:04;;;;;;;3.80;3.60;;;;;;;5.78;100.00;100113.75;6077658;23;20124;-71
2023/11/07 00:43:30;;;;;;;4.00;3.80;;;;;;;6.08;100.00;100162.06;6056451;23;20026;-72
2023/11/07 00:45:57;;;;;;;5.85;5.45;;;;;;;6.32;100.00;100204.47;6085798;23;20033;-70
2023/11/07 00:48:24;;;;;;;4.40;4.10;;;;;;;6.33;100.00;100212.19;6055628;23;20014;-71
2023/11/07 00:50:50;;;;;;;4.50;4.22;;;;;;;6.29;100.00;100201.97;6094827;23;20033;-73
2023/11/07 00:53:17;;;;;;;3.85;3.65;;;;;;;5.88;100.00;100148.06;6052638;23;20609;-72
2023/11/07 00:55:43;;;;;;;3.97;3.78;;;;;;;6.18;100.00;100200.69;6087199;23;20041;-71
2023/11/07 00:58:10;;;;;;;4.38;4.18;;;;;;;6.10;100.00;100196.72;6047190;23;20683;-72
2023/11/07 01:00:36;;;;;;;3.92;3.72;;;;;;;6.13;100.00;100204.38;6091069;23;20088;-71
2023/11/07 01:03:03;;;;;;;4.18;3.97;;;;;;;6.17;100.00;100222.44;6060573;23;20030;-71
2023/11/07 01:05:29;;;;;;;3.80;3.60;;;;;;;6.18;100.00;100229.34;6082576;23;20042;-71
2023/11/07 01:07:56;;;;;;;5.15;4.85;;;;;;;5.88;100.00;100189.75;6089254;23;20172;-72
2023/11/07 01:10:22;;;;;;;3.75;3.58;;;;;;;5.83;100.00;100188.22;6078153;23;20101;-71
2023/11/07 01:12:52;;;;;;;3.88;3.67;;;;;;;6.11;100.00;100232.25;6086080;23;20018;-71
2023/11/07 01:15:19;;;;;;;3.47;3.38;;;;;;;5.64;100.00;100170.75;6088033;23;20086;-72
2023/11/07 01:17:46;;;;;;;3.55;3.45;;;;;;;6.18;100.00;100250.19;6085546;23;20060;-72
2023/11/07 01:20:13;;;;;;;3.97;3.78;;;;;;;6.19;100.00;100243.22;6040105;23;20110;-71
2023/11/07 01:22:39;;;;;;;4.13;3.92;;;;;;;6.39;100.00;100271.91;6086659;23;20022;-72
2023/11/07 01:25:06;;;;;;;3.75;3.55;;;;;;;6.54;100.00;100274.78;6084258;23;20427;-72
2023/11/07 01:27:32;;;;;;;3.70;3.50;;;;;;;6.65;100.00;100269.94;6060032;23;20030;-72
2023/11/07 01:29:59;;;;;;;5.25;4.95;;;;;;;6.66;100.00;100261.22;6076545;23;20029;-71
2023/11/07 01:32:25;;;;;;;3.80;3.60;;;;;;;6.31;100.00;100194.94;6052839;23;20101;-71
2023/11/07 01:34:52;;;;;;;4.45;4.15;;;;;;;6.11;100.00;100170.56;6078860;23;20037;-71
2023/11/07 01:37:19;;;;;;;3.38;3.28;;;;;;;6.60;100.00;100251.06;6059097;23;20038;-71
2023/11/07 01:39:45;;;;;;;4.10;3.90;;;;;;;6.51;100.00;100234.03;6087785;23;20053;-71
2023/11/07 01:42:12;;;;;;;3.97;3.78;;;;;;;6.39;100.00;100243.25;6055497;23;20041;-71
2023/11/07 01:44:49;;;;;;;4.25;3.95;;;;;;;5.76;100.00;100127.75;6063035;23;20024;-71
2023/11/07 01:47:18;;;;;;;3.90;3.70;;;;;;;6.35;100.00;100228.66;6030848;23;20022;-73
2023/11/07 01:49:47;;;;;;;3.55;3.45;;;;;;;6.29;100.00;100223.66;6086309;23;20712;-72
2023/11/07 01:52:17;;;;;;;4.22;4.03;;;;;;;6.23;100.00;100228.28;6052248;23;20086;-73
2023/11/07 01:54:44;;;;;;;3.85;3.65;;;;;;;5.74;100.00;100173.84;6086989;23;20029;-72
2023/11/07 01:57:12;;;;;;;3.50;3.40;;;;;;;5.68;100.00;100146.28;6095139;23;20501;-73
2023/11/07 01:59:39;;;;;;;3.50;3.40;;;;;;;6.15;100.00;100226.00;6054038;23;20040;-71
2023/11/07 02:02:10;;;;;;;4.63;4.35;;;;;;;6.08;100.00;100232.41;6077838;23;20676;-72
2023/11/07 02:04:36;;;;;;;3.70;3.60;;;;;;;5.63;100.00;100178.63;6053009;23;20026;-72
2023/11/07 02:07:03;;;;;;;3.95;3.65;;;;;;;5.62;100.00;100177.78;6095373;23;20017;-71
2023/11/07 02:09:30;;;;;;;3.70;3.50;;;;;;;5.94;100.00;100231.16;6052761;23;20014;-71
2023/11/07 02:11:56;;;;;;;4.85;4.65;;;;;;;6.08;100.00;100253.25;6075607;23;20040;-72
2023/11/07 02:14:29;;;;;;;3.63;3.50;;;;;;;6.11;100.00;100266.13;6052735;23;20066;-72
2023/11/07 02:16:56;;;;;;;3.60;3.50;;;;;;;6.05;100.00;100258.56;6053593;23;20034;-72
2023/11/07 02:19:22;;;;;;;3.50;3.40;;;;;;;6.04;100.00;100259.47;6076558;23;20092;-72
2023/11/07 02:21:51;;;;;;;10.60;3.90;;;;;;;6.12;100.00;100266.06;6048168;23;20022;-72
2023/11/07 02:24:17;;;;;;;3.55;3.38;;;;;;;5.64;100.00;100194.19;6050621;23;20676;-71
2023/11/07 02:26:44;;;;;;;3.50;3.40;;;;;;;5.88;100.00;100235.78;6056829;23;20081;-71
2023/11/07 02:29:10;;;;;;;3.50;3.40;;;;;;;6.08;100.00;100272.31;6074295;23;20022;-72
2023/11/07 02:31:37;;;;;;;3.50;3.40;;;;;;;5.62;100.00;100202.97;6058833;23;20026;-72
2023/11/07 02:34:05;;;;;;;4.93;4.72;;;;;;;6.05;100.00;100274.19;6077945;23;20037;-72
2023/11/07 02:36:34;;;;;;;4.90;4.32;;;;;;;5.54;100.00;100205.88;6093683;23;20625;-72
2023/11/07 02:39:00;;;;;;;3.58;3.42;;;;;;;5.70;100.00;100229.53;6086481;23;20052;-72
2023/11/07 02:41:27;;;;;;;3.60;3.50;;;;;;;5.67;100.00;100214.88;6050982;23;20588;-72
2023/11/07 02:43:54;;;;;;;4.68;4.47;;;;;;;5.72;100.00;100227.72;6086093;23;20026;-72
2023/11/07 02:46:20;;;;;;;3.53;3.42;;;;;;;5.66;100.00;100210.59;6088138;23;20080;-71
2023/11/07 02:48:47;;;;;;;3.50;3.40;;;;;;;5.67;100.00;100220.06;6082166;23;20622;-71
2023/11/07 02:51:17;;;;;;;3.83;3.65;;;;;;;6.00;100.00;100277.00;6053630;23;20030;-72
2023/11/07 02:53:45;;;;;;;3.58;3.42;;;;;;;5.83;100.00;100246.34;6078538;23;20089;-72
2023/11/07 02:56:11;;;;;;;3.40;3.30;;;;;;;6.16;100.00;100288.47;6065722;23;20136;-71
2023/11/07 02:58:38;;;;;;;3.85;3.70;;;;;;;5.72;100.00;100219.91;6079556;23;20049;-71
2023/11/07 03:01:06;;;;;;;3.55;3.42;;;;;;;6.25;100.00;100297.66;6064684;23;20027;-72
2023/11/07 03:03:32;;;;;;;3.70;3.50;;;;;;;6.21;100.00;100290.88;6085180;23;20107;-71
2023/11/07 03:05:59;;;;;;;5.00;4.80;;;;;;;6.32;100.00;100301.72;6053166;23;20307;-72
2023/11/07 03:08:26;;;;;;;3.50;3.40;;;;;;;6.06;100.00;100266.31;6081697;23;20080;-72
2023/11/07 03:10:52;;;;;;;3.60;3.50;;;;;;;6.35;100.00;100311.19;6053018;23;20113;-71
2023/11/07 03:13:20;;;;;;;3.95;3.75;;;;;;;6.37;100.00;100310.22;6086959;23;20089;-72
2023/11/07 03:15:47;;;;;;;3.67;3.40;;;;;;;6.35;100.00;100304.22;6052425;23;20485;-72
2023/11/07 03:18:14;;;;;;;4.15;3.85;;;;;;;5.74;100.00;100213.72;6076895;23;20025;-72
2023/11/07 03:20:41;;;;;;;4.00;3.80;;;;;;;5.95;100.00;100245.94;6056766;23;20025;-72
2023/11/07 03:23:07;;;;;;;3.85;3.65;;;;;;;6.34;100.00;100307.72;6080554;23;20064;-71
2023/11/07 03:25:33;;;;;;;3.97;3.78;;;;;;;6.27;100.00;100293.25;6053319;23;20046;-72
2023/11/07 03:28:00;;;;;;;4.63;4.43;;;;;;;6.38;100.00;100311.06;6080299;23;20041;-71
2023/11/07 03:30:29;;;;;;;3.70;3.50;;;;;;;6.38;100.00;100313.69;6057871;23;20030;-75
2023/11/07 03:32:56;;;;;;;3.63;3.50;;;;;;;6.35;100.00;100306.84;6080953;23;20114;-71
2023/11/07 03:35:23;;;;;;;3.80;3.60;;;;;;;6.36;100.00;100303.31;6025361;23;20050;-72
2023/11/07 03:37:51;;;;;;;3.38;3.28;;;;;;;6.02;100.00;100243.06;6061629;23;20026;-72
2023/11/07 03:40:17;;;;;;;3.53;3.42;;;;;;;6.04;100.00;100262.94;6076161;23;20130;-71
2023/11/07 03:42:44;;;;;;;3.35;3.25;;;;;;;5.11;100.00;100132.94;6087817;23;20880;-72
2023/11/07 03:45:11;;;;;;;3.50;3.30;;;;;;;6.39;100.00;100304.94;6054764;23;20110;-71
2023/11/07 03:47:38;;;;;;;3.65;3.53;;;;;;;6.27;100.00;100279.38;6087086;23;20092;-72
2023/11/07 03:50:05;;;;;;;4.65;4.45;;;;;;;6.51;100.00;100311.41;6058267;23;20060;-72
2023/11/07 03:52:31;;;;;;;3.80;3.60;;;;;;;6.45;100.00;100285.59;6088973;23;20117;-72
2023/11/07 03:54:58;;;;;;;4.00;3.80;;;;;;;6.67;100.00;100315.06;6065665;23;20050;-71
2023/11/07 03:57:25;;;;;;;3.60;3.50;;;;;;;6.68;100.00;100311.53;6087308;23;20054;-71
2023/11/07 03:59:52;;;;;;;3.95;3.75;;;;;;;6.65;100.00;100298.63;6052594;23;20018;-72
2023/11/07 04:02:19;;;;;;;3.88;3.70;;;;;;;6.63;100.00;100297.84;6088327;23;22163;-71
2023/11/07 04:04:46;;;;;;;3.80;3.60;;;;;;;6.39;100.00;100260.63;6054171;23;20050;-71
2023/11/07 04:07:12;;;;;;;3.90;3.70;;;;;;;6.27;100.00;100245.50;6086749;23;20673;-71
2023/11/07 04:09:39;;;;;;;3.67;3.58;;;;;;;6.49;100.00;100279.31;6056387;23;20105;-72
2023/11/07 04:12:06;;;;;;;4.70;4.50;;;;;;;6.46;100.00;100279.47;6080555;23;20039;-71
2023/11/07 04:14:32;;;;;;;3.60;3.50;;;;;;;5.73;100.00;100169.53;6061159;23;20508;-73
2023/11/07 04:16:59;;;;;;;4.65;4.25;;;;;;;6.37;100.00;100273.75;6080548;23;20049;-73
2023/11/07 04:19:26;;;;;;;5.13;4.75;;;;;;;5.97;100.00;100223.28;6085953;23;20091;-70
2023/11/07 04:21:52;;;;;;;4.07;3.90;;;;;;;6.03;100.00;100224.75;6084957;23;20033;-71
2023/11/07 04:24:21;;;;;;;4.13;3.92;;;;;;;5.97;100.00;100230.22;6032041;23;20031;-73
2023/11/07 04:26:49;;;;;;;3.55;3.45;;;;;;;5.95;100.00;100217.28;6058893;23;20120;-71
2023/11/07 04:29:16;;;;;;;5.18;4.88;;;;;;;6.27;100.00;100261.97;6026718;23;20041;-72
2023/11/07 04:31:42;;;;;;;3.70;3.60;;;;;;;6.48;100.00;100283.69;6089972;23;20672;-73
2023/11/07 04:34:09;;;;;;;4.13;3.92;;;;;;;6.37;100.00;100242.47;6028223;23;20030;-73
2023/11/07 04:36:39;;;;;;;6.78;3.85;;;;;;;6.75;100.00;100293.88;6079758;23;20021;-71
2023/11/07 04:39:10;;;;;;;3.55;3.45;;;;;;;6.93;100.00;100302.66;6055449;23;20023;-72
2023/11/07 04:41:36;;;;;;;3.60;3.50;;;;;;;6.98;100.00;100304.16;6085350;23;20041;-72
2023/11/07 04:44:03;;;;;;;4.68;4.47;;;;;;;6.92;100.00;100264.47;6055615;23;20030;-72
2023/11/07 04:46:30;;;;;;;3.92;3.72;;;;;;;6.50;100.00;100187.19;6075444;23;20078;-72
2023/11/07 04:48:56;;;;;;;3.47;3.38;;;;;;;6.91;100.00;100239.28;6058525;23;20503;-72
2023/11/07 04:51:23;;;;;;;3.55;3.42;;;;;;;6.87;100.00;100232.50;6083617;23;20099;-71
2023/11/07 04:53:49;;;;;;;3.35;3.25;;;;;;;6.88;100.00;100236.81;6023817;23;20031;-73
2023/11/07 04:56:16;;;;;;;3.20;3.10;;;;;;;6.91;100.00;100223.63;6085187;23;20033;-73
2023/11/07 04:58:43;;;;;;;3.60;3.50;;;;;;;6.94;100.00;100229.56;6087339;23;20486;-72
2023/11/07 05:01:24;;;;;;;4.28;4.07;;;;;;;6.63;100.00;100172.69;6060930;23;20044;-72
2023/11/07 05:03:50;;;;;;;3.63;3.50;;;;;;;6.66;100.00;100184.75;6057049;23;20003;-74
2023/11/07 05:06:19;;;;;;;3.63;3.53;;;;;;;7.04;100.00;100236.97;6054582;23;20038;-72
2023/11/07 05:08:46;;;;;;;3.50;3.40;;;;;;;6.77;100.00;100180.75;6052894;23;20031;-72
2023/11/07 05:11:12;;;;;;;4.35;3.50;;;;;;;7.14;100.00;100233.88;6084116;23;20033;-73
2023/11/07 05:13:39;;;;;;;3.78;3.67;;;;;;;7.16;100.00;100229.44;6054718;23;20457;-73
2023/11/07 05:16:05;;;;;;;5.20;4.93;;;;;;;6.65;100.00;100143.94;6072462;23;20025;-72
2023/11/07 05:18:32;;;;;;;3.65;3.55;;;;;;;7.08;100.00;100202.00;6058439;23;20025;-72
2023/11/07 05:20:59;;;;;;;3.50;3.30;;;;;;;7.06;100.00;100191.63;6060608;23;20022;-71
2023/11/07 05:23:26;;;;;;;3.58;3.47;;;;;;;6.93;100.00;100177.44;6084020;23;20028;-71
2023/11/07 05:25:52;;;;;;;3.92;3.75;;;;;;;7.14;100.00;100196.50;6057334;23;21170;-72
2023/11/07 05:28:18;;;;;;;3.90;3.70;;;;;;;7.28;100.00;100208.94;6054293;23;21074;-71
2023/11/07 05:30:45;;;;;;;3.40;3.30;;;;;;;7.16;100.00;100179.84;6088139;23;20089;-71
2023/11/07 05:33:12;;;;;;;3.60;3.50;;;;;;;6.92;100.00;100134.03;6065949;23;20026;-71
2023/11/07 05:35:39;;;;;;;4.13;3.92;;;;;;;7.33;100.00;100199.09;6076245;23;20023;-71
2023/11/07 05:38:05;;;;;;;4.85;4.65;;;;;;;7.29;100.00;100184.50;6085125;23;20034;-72
2023/11/07 05:40:32;;;;;;;3.60;3.50;;;;;;;7.17;100.00;100178.09;6054593;23;20026;-72
2023/11/07 05:42:58;;;;;;;3.70;3.50;;;;;;;7.24;100.00;100191.72;6092521;23;20089;-71
2023/11/07 05:45:25;;;;;;;3.85;3.65;;;;;;;7.24;100.00;100191.72;6055516;23;20445;-71
2023/11/07 05:47:52;;;;;;;4.60;4.35;;;;;;;7.25;100.00;100201.22;6078578;23;20084;-72
2023/11/07 05:50:25;;;;;;;3.95;3.75;;;;;;;7.28;100.00;100196.72;6060214;23;20055;-72
2023/11/07 05:52:52;;;;;;;;;;;;;;;7.28;100.00;100198.47;6055605;23;20051;-71
2023/11/07 05:55:19;;;;;;;4.10;3.90;;;;;;;7.36;100.00;100206.81;6064591;23;19987;-74
2023/11/07 05:57:45;;;;;;;3.60;3.50;;;;;;;7.35;100.00;100202.47;6086125;23;20014;-72
2023/11/07 06:00:13;;;;;;;3.55;3.45;;;;;;;7.20;100.00;100170.13;6052648;23;20050;-71
2023/11/07 06:02:40;;;;;;;4.30;4.00;;;;;;;7.44;100.00;100206.41;6085788;23;20138;-73
2023/11/07 06:05:06;;;;;;;3.83;3.67;;;;;;;7.40;100.00;100200.50;6050280;23;20623;-72
2023/11/07 06:07:33;;;;;;;3.60;3.50;;;;;;;7.45;100.00;100203.75;6081589;23;20777;-71
2023/11/07 06:10:01;;;;;;;4.78;4.57;;;;;;;6.31;100.00;100015.13;6051144;23;20015;-71
2023/11/07 06:12:27;;;;;;;3.60;3.50;;;;;;;7.43;100.00;100216.03;6084715;23;20485;-71
2023/11/07 06:14:54;;;;;;;3.55;3.45;;;;;;;7.17;100.00;100167.66;6056008;23;20991;-71
2023/11/07 06:17:21;;;;;;;3.97;3.78;;;;;;;7.51;100.00;100208.66;6080705;23;20022;-72
2023/11/07 06:19:47;;;;;;;3.70;3.60;;;;;;;7.48;100.00;100211.44;6027065;23;20030;-73
2023/11/07 06:22:14;;;;;;;3.55;3.45;;;;;;;7.49;100.00;100207.06;6082262;23;20030;-71
2023/11/07 06:24:42;;;;;;;3.60;3.50;;;;;;;6.97;100.00;100125.06;6055385;23;20021;-71
2023/11/07 06:27:08;;;;;;;8.02;3.72;;;;;;;7.01;100.00;100127.53;6086342;23;20053;-70
2023/11/07 06:29:42;;;;;;;4.00;3.80;;;;;;;7.33;100.00;100180.81;6088212;23;20353;-70
2023/11/07 06:32:10;;;;;;;3.65;3.50;;;;;;;7.00;100.00;100150.19;6063214;23;20492;-70
2023/11/07 06:34:37;;;;;;;4.00;3.80;;;;;;;7.05;100.00;100184.72;6053950;23;20026;-70
2023/11/07 06:37:03;;;;;;;4.07;3.88;;;;;;;7.10;100.00;100214.06;6097788;23;20054;-71
2023/11/07 06:39:30;;;;;;;5.90;4.00;;;;;;;6.95;100.00;100194.72;6056332;23;20417;-70
2023/11/07 06:41:57;;;;;;;5.68;5.28;;;;;;;6.99;100.00;100227.56;6057506;23;20088;-71
2023/11/07 06:44:25;;;;;;;3.63;3.53;;;;;;;7.05;100.00;100236.06;6060214;23;20022;-71
2023/11/07 06:46:53;;;;;;;3.80;3.60;;;;;;;6.53;100.00;100166.19;6086908;23;20014;-72
2023/11/07 06:49:20;;;;;;;4.10;3.90;;;;;;;6.94;100.00;100246.97;6069403;23;20037;-72
2023/11/07 06:51:46;;;;;;;4.00;3.80;;;;;;;6.53;100.00;100195.72;6093411;23;20029;-72
2023/11/07 06:54:13;;;;;;;3.70;3.60;;;;;;;6.65;100.00;100222.16;6054852;23;20606;-73
2023/11/07 06:56:40;;;;;;;3.83;3.60;;;;;;;6.42;100.00;100207.53;6087860;23;20060;-72
2023/11/07 06:59:06;;;;;;;3.75;3.60;;;;;;;5.67;100.00;100092.53;6055243;23;20052;-71
2023/11/07 07:01:33;;;;;;;3.42;3.33;;;;;;;6.15;100.00;100181.72;6058877;23;20030;-73
2023/11/07 07:04:01;;;;;;;5.07;4.78;;;;;;;6.57;100.00;100246.84;6057821;23;20171;-75
2023/11/07 07:06:28;;;;;;;3.80;3.60;;;;;;;6.46;100.00;100248.19;6086569;23;20053;-78
2023/11/07 07:08:54;;;;;;;4.00;3.80;;;;;;;5.95;100.00;100172.13;6064516;23;20022;-77
2023/11/07 07:11:21;;;;;;;3.50;3.40;;;;;;;6.28;100.00;100222.00;6083415;23;20589;-75
2023/11/07 07:13:47;;;;;;;3.95;3.75;;;;;;;5.98;100.00;100185.03;6056190;23;20473;-78
2023/11/07 07:16:14;;;;;;;3.63;3.53;;;;;;;6.69;100.00;100304.56;6076532;23;20031;-78
2023/11/07 07:18:41;;;;;;;4.47;4.18;;;;;;;6.58;100.00;100300.66;6058060;23;20747;-77
2023/11/07 07:21:09;;;;;;;3.50;3.40;;;;;;;6.33;100.00;100261.72;6089170;23;20010;-76
2023/11/07 07:23:36;;;;;;;4.18;3.97;;;;;;;6.26;100.00;100229.03;6057720;23;20029;-77
2023/11/07 07:26:08;;;;;;;4.55;4.35;;;;;;;6.33;100.00;100237.41;6094970;23;20084;-76
2023/11/07 07:28:38;;;;;;;4.35;4.00;;;;;;;6.56;100.00;100262.53;6047347;23;20017;-76
2023/11/07 07:31:08;;;;;;;4.00;3.80;;;;;;;7.16;100.00;100362.53;6092726;23;20523;-76
2023/11/07 07:33:38;;;;;;;4.05;3.85;;;;;;;7.18;100.00;100368.53;6053067;23;20030;-77
2023/11/07 07:36:11;;;;;;;5.18;4.88;;;;;;;7.02;100.00;100335.34;6080067;23;20033;-76
2023/11/07 07:38:38;;;;;;;4.18;3.88;;;;;;;7.02;100.00;100323.16;6058144;23;20029;-76
2023/11/07 07:41:05;;;;;;;4.18;3.90;;;;;;;7.52;100.00;100380.09;6082414;23;20026;-77
2023/11/07 07:43:31;;;;;;;3.90;3.70;;;;;;;7.32;100.00;100323.56;6058904;23;20323;-78
2023/11/07 07:45:58;;;;;;;5.00;4.72;;;;;;;7.76;100.00;100393.81;6091135;23;20084;-74
2023/11/07 07:48:24;;;;;;;3.90;3.70;;;;;;;7.47;100.00;100332.44;6082963;23;20042;-77
2023/11/07 07:50:51;;;;;;;3.88;3.67;;;;;;;7.16;100.00;100280.78;6062702;23;20076;-77
2023/11/07 07:53:20;;;;;;;3.95;3.75;;;;;;;7.71;100.00;100376.66;6082478;23;20540;-74
2023/11/07 07:55:49;;;;;;;3.70;3.60;;;;;;;7.64;100.00;100359.56;6058965;23;20037;-78
2023/11/07 07:58:20;;;;;;;3.75;3.65;;;;;;;6.97;100.00;100242.44;6076692;23;20014;-76
2023/11/07 08:00:52;;;;;;;4.00;3.80;;;;;;;6.64;100.00;100179.63;6081516;23;20087;-76
2023/11/07 08:03:20;;;;;;;4.00;3.80;;;;;;;7.84;100.00;100367.34;6037839;23;20026;-77
2023/11/07 08:05:47;;;;;;;4.13;3.92;;;;;;;7.90;100.00;100371.44;6078704;23;20046;-77
2023/11/07 08:08:16;;;;;;;3.53;3.42;;;;;;;7.64;100.00;100333.44;6057083;23;20034;-74
2023/11/07 08:10:47;;;;;;;4.05;3.85;;;;;;;7.89;100.00;100354.91;6083062;23;20067;-77
2023/11/07 08:13:16;;;;;;;3.72;3.63;;;;;;;7.98;100.00;100362.31;6037106;23;20033;-73
2023/11/07 08:15:43;;;;;;;3.70;3.60;;;;;;;7.85;100.00;100315.94;6089799;23;20106;-76
2023/11/07 08:18:10;;;;;;;3.90;3.70;;;;;;;8.10;100.00;100365.28;6026932;23;20026;-75
2023/11/07 08:20:37;;;;;;;4.20;3.88;;;;;;;7.49;100.00;100236.63;6080861;23;20018;-73
2023/11/07 08:23:05;;;;;;;4.18;3.97;;;;;;;8.18;100.00;100340.47;6056899;23;20017;-75
2023/11/07 08:25:32;;;;;;;4.05;3.85;;;;;;;8.21;100.00;100339.47;6085443;23;20025;-76
2023/11/07 08:28:00;;;;;;;4.85;4.60;;;;;;;7.69;100.00;100245.28;6049884;23;20225;-76
2023/11/07 08:30:26;;;;;;;3.80;3.60;;;;;;;7.81;100.00;100238.63;6088576;23;20025;-77
2023/11/07 08:32:53;;;;;;;3.83;3.63;;;;;;;7.58;100.00;100175.31;6057332;23;20243;-76
2023/11/07 08:35:20;;;;;;;4.45;4.25;;;;;;;8.11;100.00;100228.44;6080796;23;20663;-76
2023/11/07 08:37:51;;;;;;;4.25;4.05;;;;;;;8.80;100.00;100300.88;6054496;23;20544;-76
2023/11/07 08:40:21;;;;;;;4.15;3.95;;;;;;;8.72;100.00;100261.13;6076929;23;20104;-75
2023/11/07 08:42:50;;;;;;;4.13;3.92;;;;;;;9.27;100.00;100299.28;6035325;23;20041;-76
2023/11/07 08:45:18;;;;;;;4.07;3.85;;;;;;;8.91;100.00;100206.94;6088042;23;20022;-76
2023/11/07 08:47:51;;;;;;;4.30;4.10;;;;;;;9.71;100.00;100278.53;6050555;23;20045;-77
2023/11/07 08:50:20;;;;;;;4.97;4.68;;;;;;;9.81;100.00;100247.44;6053197;23;20065;-77
2023/11/07 08:52:47;;;;;;;3.78;3.67;;;;;;;10.20;100.00;100232.97;6058564;23;20021;-77
2023/11/07 08:55:14;;;;;;;5.32;4.30;;;;;;;10.11;100.00;100153.06;6090959;23;20520;-71
2023/11/07 08:57:40;;;;;;;4.20;4.00;;;;;;;10.24;100.00;100113.00;6056899;23;20014;-76
2023/11/07 09:00:08;;;;;;;4.85;4.65;;;;;;;10.18;100.00;100060.00;6077613;23;20025;-76
2023/11/07 09:02:38;;;;;;;4.32;4.10;;;;;;;10.08;100.00;100009.06;6060229;23;20034;-75
2023/11/07 09:05:06;;;;;;;3.92;3.78;;;;;;;10.05;100.00;99969.09;6077605;23;20014;-75
2023/11/07 09:07:33;;;;;;;4.20;4.00;;;;;;;10.02;100.00;99908.97;6055861;23;20089;-77
2023/11/07 09:10:01;;;;;;;5.22;4.93;;;;;;;10.67;100.00;99973.97;6056614;23;20030;-74
2023/11/07 09:12:28;;;;;;;4.30;4.10;;;;;;;10.80;100.00;99972.22;6052093;23;20036;-75
2023/11/07 09:14:54;;;;;;;5.00;4.60;;;;;;;10.53;100.00;99890.91;6088551;23;20032;-71
2023/11/07 09:17:21;;;;;;;4.40;4.20;;;;;;;10.61;100.00;99872.88;6056132;23;20558;-71
2023/11/07 09:19:48;;;;;;;4.20;4.00;;;;;;;10.86;100.00;99874.69;6089632;23;20041;-75
2023/11/07 09:22:15;;;;;;;4.50;4.20;;;;;;;10.80;100.00;99863.78;6048581;23;20035;-79
2023/11/07 09:24:43;;;;;;;4.78;4.35;;;;;;;10.42;100.00;99806.81;6085626;23;20017;-73
2023/11/07 09:27:10;;;;;;;3.97;3.78;;;;;;;10.34;100.00;99828.28;6060213;23;20026;-78
2023/11/07 09:29:37;;;;;;;4.40;4.20;;;;;;;10.63;100.00;99896.41;6071062;23;20371;-77
2023/11/07 09:32:05;;;;;;;5.65;5.35;;;;;;;10.78;100.00;99926.88;6083611;23;20494;-72
2023/11/07 09:34:31;;;;;;;4.60;4.40;;;;;;;10.78;100.00;99930.34;6076710;23;20014;-71
2023/11/07 09:36:58;;;;;;;4.40;4.20;;;;;;;10.62;100.00;99895.53;6085184;23;20070;-72
2023/11/07 09:39:28;;;;;;;4.05;3.85;;;;;;;10.38;100.00;99880.47;6064651;23;20520;-71
2023/11/07 09:41:55;;;;;;;5.07;4.88;;;;;;;10.41;100.00;99878.59;6075769;23;20030;-70
2023/11/07 09:44:22;;;;;;;4.30;4.10;;;;;;;10.65;100.00;99918.13;6068818;23;20021;-74
2023/11/07 09:46:50;;;;;;;8.07;3.92;;;;;;;10.32;100.00;99895.72;6049066;23;20041;-76
2023/11/07 09:49:16;;;;;;;4.00;3.80;;;;;;;10.74;100.00;99952.50;6082127;23;20025;-78
2023/11/07 09:51:46;;;;;;;4.20;4.00;;;;;;;10.76;100.00;99944.50;6083544;23;20039;-76
2023/11/07 09:54:18;;;;;;;4.25;3.95;;;;;;;10.71;100.00;99939.56;6050760;23;20017;-72
2023/11/07 09:56:51;;;;;;;4.60;4.30;;;;;;;10.34;100.00;99902.59;6057703;23;20030;-77
2023/11/07 09:59:33;;;;;;;4.30;4.10;;;;;;;10.56;100.00;99932.66;6076123;23;20605;-77
2023/11/07 10:01:59;;;;;;;4.85;4.65;;;;;;;10.76;100.00;99971.59;6077051;23;20076;-75
2023/11/07 10:04:28;;;;;;;4.10;3.90;;;;;;;10.13;100.00;99915.22;6063237;23;20030;-72
2023/11/07 10:06:55;;;;;;;4.13;3.92;;;;;;;10.06;100.00;99910.47;6064969;23;20087;-75
2023/11/07 10:09:21;;;;;;;4.22;4.03;;;;;;;10.56;100.00;99980.75;6093071;23;20026;-77
2023/11/07 10:11:53;;;;;;;4.30;4.10;;;;;;;10.56;100.00;99982.50;6061623;23;20030;-70
2023/11/07 10:14:20;;;;;;;4.72;4.43;;;;;;;9.82;100.00;99849.94;6092984;23;20029;-72
2023/11/07 10:16:56;;;;;;;4.40;4.20;;;;;;;10.57;100.00;99974.56;6058465;23;20033;-75
2023/11/07 10:19:24;;;;;;;4.82;4.47;;;;;;;10.56;100.00;99966.78;6084594;23;20024;-75
2023/11/07 10:21:51;;;;;;;4.45;4.25;;;;;;;10.56;100.00;99953.66;6087045;23;20073;-71
2023/11/07 10:24:19;;;;;;;4.82;4.47;;;;;;;10.83;100.00;99945.78;6070262;23;20606;-77
2023/11/07 10:26:58;;;;;;;4.18;3.95;;;;;;;10.91;100.00;99924.28;6035192;23;20034;-76
2023/11/07 10:29:26;;;;;;;4.47;3.97;;;;;;;10.97;100.00;99882.72;6086217;23;20030;-75
2023/11/07 10:32:10;;;;;;;5.28;5.03;;;;;;;11.02;100.00;99899.94;6055466;23;20815;-70
2023/11/07 10:34:38;;;;;;;5.07;4.57;;;;;;;10.70;100.00;99839.94;6061881;23;20197;-70
2023/11/07 10:37:07;;;;;;;8.55;4.20;;;;;;;11.00;100.00;99881.66;6040467;23;20026;-74
2023/11/07 10:39:35;;;;;;;4.22;4.03;;;;;;;11.11;100.00;99847.66;6092753;23;20037;-77
2023/11/07 10:42:16;;;;;;;5.18;4.97;;;;;;;11.12;100.00;99822.22;6058987;23;20057;-75
2023/11/07 10:44:48;;;;;;;4.53;4.32;;;;;;;11.64;100.00;99883.47;6088995;23;20045;-75
2023/11/07 10:47:16;;;;;;;4.95;4.65;;;;;;;10.21;100.00;99625.50;6060484;23;20026;-73
2023/11/07 10:49:49;;;;;;;4.75;4.45;;;;;;;11.64;100.00;99862.44;6088141;23;20674;-77
2023/11/07 10:52:17;;;;;;;4.45;4.25;;;;;;;11.48;100.00;99850.34;6032800;23;20719;-76
2023/11/07 10:54:43;;;;;;;4.60;4.40;;;;;;;11.46;100.00;99830.41;6084490;23;20021;-75
2023/11/07 10:57:11;;;;;;;4.60;4.40;;;;;;;11.40;100.00;99828.22;6053571;23;20021;-74
2023/11/07 10:59:45;;;;;;;4.38;4.18;;;;;;;11.30;100.00;99820.13;6089483;23;20034;-75
2023/11/07 11:02:15;;;;;;;4.70;4.50;;;;;;;11.17;100.00;99826.22;6057455;23;20087;-70
2023/11/07 11:04:42;;;;;;;4.43;4.22;;;;;;;11.00;100.00;99823.91;6089033;23;20049;-71
2023/11/07 11:07:10;;;;;;;4.40;4.20;;;;;;;11.48;100.00;99904.72;6058698;23;20626;-76
2023/11/07 11:09:41;;;;;;;4.60;4.40;;;;;;;11.36;100.00;99831.03;6059180;23;20014;-73
2023/11/07 11:12:09;;;;;;;5.50;5.20;;;;;;;11.35;99.17;99804.88;6055946;23;20306;-75
2023/11/07 11:14:35;;;;;;;4.63;4.43;;;;;;;11.42;96.22;99729.09;6078935;23;20029;-76
2023/11/07 11:17:38;;;;;;;4.65;4.45;;;;;;;12.07;93.71;99765.59;6055818;23;20394;-72
2023/11/07 11:20:26;;;;;;;5.55;5.35;;;;;;;12.29;92.15;99740.34;5988890;23;20060;-78
2023/11/07 11:23:16;;;;;;;4.50;4.30;;;;;;;12.17;90.87;99681.59;6082927;23;20032;-70
2023/11/07 11:25:52;;;;;;;4.70;4.50;;;;;;;12.39;89.98;99712.38;6090874;23;20005;-72
2023/11/07 11:28:36;;;;;;;4.50;4.30;;;;;;;12.40;89.90;99718.47;6054803;23;20030;-71
2023/11/07 11:31:03;;;;;;;4.20;4.00;;;;;;;12.55;89.50;99723.41;6064521;23;20029;-75